x

Muskegon, Mi (mkgm4) Weather Station

3:50am - Fri 26th Aug 2016 All times are CDT. -5 hours from GMT.

  • Wind
    11mph, 14mph gusts
  • Air Temp 72°f
  • Sea Pressure 1019mb
  • Muskegon, Mi
  • Muskegon, Mi

More Historic Weather Station data

Upgrade to MSW Pro to gain access to the past 30 days of data for over 8000 Wavebouys and Weather Stations around the globe.

Join Pro

Comparision Forecast

View Surf forecast
   
Fri 08/26 3:50am 11 14 mph 1019mb 72f
3:40am 15 16 mph 1018.8mb 72f
3:30am 15 17 mph 1018.8mb 72f
3:20am 15 17 mph 1018.8mb 72f
3:10am 17 20 mph 1018.7mb 72f
3:00am 16 20 mph 1018.6mb 72f
2:50am 18 21 mph 1018.7mb 73f
2:40am 18 21 mph 1018.6mb 73f
2:30am 21 22 mph 1018.5mb 73f
2:20am 21 22 mph 1018.5mb 73f
2:10am 21 22 mph 1018.5mb 74f
2:00am 20 23 mph 1018.5mb 74f
1:50am 18 20 mph 1018.5mb 74f
1:40am 17 20 mph 1018.5mb 74f
1:30am 17 20 mph 1018.5mb 74f
1:20am 17 20 mph 1018.3mb 74f
1:10am 20 21 mph 1018.5mb 74f
1:00am 16 18 mph 1018.5mb 74f
12:50am 16 17 mph 1018.3mb 74f
12:40am 16 18 mph 1018.2mb 74f
12:30am 16 17 mph 1018.2mb 74f
12:20am 15 16 mph 1018mb 74f
12:10am 14 15 mph 1018mb 74f
12:00am 14 16 mph 1018mb 74f
Thu 08/25 11:50pm 14 15 mph 1017.9mb 74f
11:40pm 13 16 mph 1017.9mb 74f
11:30pm 14 15 mph 1017.9mb 74f
11:20pm 13 15 mph 1017.9mb 74f
11:10pm 11 14 mph 1017.7mb 74f
11:00pm 13 14 mph 1017.8mb 74f
10:50pm 13
mph
1017.6mb 74f
10:40pm 11 13 mph 1017.5mb 74f
10:30pm 11 13 mph 1017.4mb 74f
10:20pm 10
mph
1017.2mb 74f
10:10pm 10 11 mph 1017.2mb 74f
10:00pm 10 11 mph 1017.2mb 74f
9:50pm 10 11 mph 1017.2mb 73f
9:40pm 9 10 mph 1017.4mb 73f
9:30pm 9 10 mph 1017.2mb 73f
9:20pm 10 11 mph 1017.4mb 73f
9:10pm 8 9 mph 1017.2mb 73f
9:00pm 9
mph
1017.2mb 73f
8:50pm 8
mph
1017.1mb 73f
8:40pm 7
mph
1017.1mb 73f
8:30pm 6 7 mph 1016.9mb 73f
8:20pm 6 7 mph 1016.9mb 73f
8:10pm 5 6 mph 1016.9mb 73f
8:00pm 6
mph
1016.7mb 73f
7:50pm 6
mph
1016.7mb 73f
7:40pm 6
mph
1016.7mb 73f
7:30pm 6 7 mph 1016.7mb 73f
7:20pm 7 8 mph 1016.8mb 73f
7:10pm 7 8 mph 1016.7mb 73f
7:00pm 7 8 mph 1016.7mb 73f
6:50pm 7 8 mph 1016.7mb 74f
6:40pm 6 7 mph 1016.7mb 73f
6:30pm 7
mph
1016.7mb 73f
6:20pm 7
mph
1016.5mb 74f
6:10pm 6 7 mph 1016.4mb 74f
6:00pm 6 7 mph 1016.5mb 74f
5:50pm 7
mph
1016.5mb 74f
5:40pm 7 8 mph 1016.7mb 74f
5:30pm 7 8 mph 1016.5mb 74f
5:20pm 7
mph
1016.5mb 74f
5:10pm 8 9 mph 1016.7mb 74f
5:00pm 8 9 mph 1016.6mb 74f
4:50pm 8 9 mph 1016.4mb 74f
4:40pm 9 10 mph 1016.2mb 74f
4:30pm 9 11 mph 1016.4mb 74f
4:20pm 11
mph
1016.4mb 74f
4:10pm 13
mph
1016.3mb 74f
4:00pm 11 14 mph 1016.5mb 74f
3:50pm 10 11 mph 1016.5mb 74f
3:40pm 11 13 mph 1016.4mb 74f
3:30pm 11 13 mph 1016.5mb 74f
3:20pm 14 15 mph 1016.7mb 74f
3:10pm 15
mph
1016.5mb 74f
3:00pm 13 14 mph 1016.5mb 74f
2:50pm 13 14 mph 1016.5mb 74f
2:40pm 13
mph
1016.5mb 74f
2:30pm 13 14 mph 1016.7mb 74f
2:20pm 13
mph
1016.7mb 74f
2:10pm 11 13 mph 1016.5mb 74f
2:00pm 11 13 mph 1016.5mb 74f
1:50pm 13 14 mph 1016.4mb 74f
1:40pm 13 14 mph 1016.4mb 74f
1:30pm 13 14 mph 1016.5mb 74f
1:20pm 11
mph
1016.4mb 74f
1:10pm 10 11 mph 1016.2mb 74f
1:00pm 9 10 mph 1016.2mb 74f
12:50pm 11
mph
1016.5mb 74f
12:40pm 13
mph
1016.5mb 74f
12:30pm 13 14 mph 1016.5mb 74f
12:20pm 14 15 mph 1016.5mb 74f
12:10pm 14 15 mph 1016.4mb 74f
12:00pm 14 15 mph 1016.1mb 74f
11:50am 14 15 mph 1016.1mb 74f
11:40am 14 16 mph 1016.1mb 74f
11:30am 14 15 mph 1016.1mb 73f
11:20am 11 14 mph 1015.9mb 74f
11:10am 14
mph
1015.9mb 74f
11:00am 13 14 mph 1015.9mb 74f
10:50am 10 11 mph 1015.7mb 74f
10:40am 10 11 mph 1015.6mb 73f
10:30am 9
mph
1015.4mb 74f
10:20am 8
mph
1015mb 74f
10:10am 8
mph
1015mb 74f
10:00am 7 8 mph 1015mb 73f
9:50am 3 6 mph 1014.9mb 73f
9:40am 1
mph
1014.6mb 73f
9:30am 1
mph
1014.6mb 73f
9:20am 2
mph
1014.9mb 74f
9:10am 5 6 mph 1014.6mb 73f
9:00am 3
mph
1014.6mb 72f
8:50am 2
mph
1014.6mb 72f
8:40am 1
mph
1015mb 72f
8:30am  -  mph 1014.9mb 71f
8:20am 1
mph
1015mb 71f
8:10am 1
mph
1015.1mb 71f
8:00am 1
mph
1015.1mb 71f
7:50am 1 2 mph 1015.1mb 71f
7:40am 3 5 mph 1015mb 71f
7:30am 2
mph
1015mb 71f
7:20am 5
mph
1014.7mb 71f
7:10am 3 5 mph 1014.7mb 71f
7:00am 3 5 mph 1014.5mb 71f
6:50am 6 7 mph 1014.5mb 70f
6:40am 3 5 mph 1014.7mb 70f
6:30am 2
mph
1014.7mb 70f
6:20am 2 3 mph 1014.7mb 70f
6:10am 3
mph
1014.7mb 70f
6:00am 9 10 mph 1015mb 71f
5:50am 5
mph
1014.8mb 71f
5:40am 3 5 mph 1014.8mb 71f
5:30am 3 5 mph 1014.6mb 73f
5:20am 3 5 mph 1014.5mb 72f
5:10am 6 7 mph 1014mb 72f
5:00am 3
mph
1014.1mb 73f
4:50am 3
mph
1013.9mb 74f
4:40am 5
mph
1014.2mb 74f
4:30am 2 3 mph 1014.1mb 74f
4:20am 3
mph
1014.4mb 74f
4:10am 7 8 mph 1014.4mb 74f
4:00am 5 6 mph 1014.2mb 74f
3:50am  -  1 mph 1013.9mb 74f
3:40am 1 2 mph 1014.1mb 74f
3:30am  -  1 mph 1014mb 74f
3:20am  -  mph 1013.9mb 74f
3:10am  -  1 mph 1013.7mb 74f
3:00am 1
mph
1013.9mb 74f
2:50am 2 3 mph 1014mb 74f
2:40am 5
mph
1014mb 74f
2:30am 3
mph
1013.9mb 74f
2:20am 2
mph
1013.9mb 74f
2:10am 3 5 mph 1013.9mb 74f
2:00am 6
mph
1014mb 74f
1:50am 5
mph
1013.8mb 75f
1:40am 7 8 mph 1013.8mb 75f
1:30am 8
mph
1013.8mb 75f
1:20am 8
mph
1013.6mb 75f
1:10am 9 10 mph 1013.7mb 75f
1:00am 9 10 mph 1013.6mb 75f
12:50am 13
mph
1013.7mb 74f
12:40am 7 8 mph 1013.4mb 74f
12:30am 7 8 mph 1013.4mb 74f
12:20am 10 11 mph 1013.4mb 74f
12:10am 10 11 mph 1013.5mb 74f
12:00am 9 10 mph 1013.5mb 74f
Wed 08/24 11:50pm 10 11 mph 1013.5mb 74f
11:40pm 11 13 mph 1013.5mb 74f
11:30pm 11 13 mph 1013.5mb 74f
11:20pm 11 13 mph 1013.5mb 74f
11:10pm 10 13 mph 1013.5mb 74f
11:00pm 11 13 mph 1013.7mb 74f
10:50pm 10
mph
1013.7mb 74f
10:40pm 10 11 mph 1013.9mb 74f
10:30pm 11
mph
1013.9mb 74f
10:20pm 10 11 mph 1013.9mb 74f
10:10pm 11 14 mph 1013.9mb 74f
10:00pm 11 13 mph 1013.8mb 75f
9:50pm 11 13 mph 1013.8mb 74f
9:40pm 11 13 mph 1013.9mb 74f
9:30pm 11 13 mph 1013.9mb 74f
9:20pm 11 13 mph 1013.8mb 74f
9:10pm 11 13 mph 1013.8mb 74f
9:00pm 10 11 mph 1013.9mb 74f
8:50pm 13 14 mph 1013.9mb 74f
8:40pm 13 14 mph 1013.9mb 74f
8:30pm 13 15 mph 1013.9mb 74f
8:20pm 11 13 mph 1013.9mb 74f
8:10pm 10 11 mph 1013.7mb 74f
8:00pm 10 11 mph 1013.6mb 74f
7:50pm 10 11 mph 1013.5mb 74f
7:40pm 11 13 mph 1013.6mb 74f
7:30pm 13 14 mph 1013.6mb 74f
7:20pm 11 14 mph 1013.5mb 74f
7:10pm 10 11 mph 1013.5mb 75f
7:00pm 11 13 mph 1013.5mb 75f
6:50pm 11
mph
1013.5mb 75f
6:40pm 11 13 mph 1013.5mb 75f
6:30pm 11 13 mph 1013.5mb 75f
6:20pm 11 13 mph 1013.5mb 76f
6:10pm 13 14 mph 1013.5mb 76f
6:00pm 13
mph
1013.5mb 76f
5:50pm 13 14 mph 1013.5mb 76f
5:40pm 13 14 mph 1013.5mb 76f
5:30pm 14 15 mph 1013.4mb 76f
5:20pm 14 16 mph 1013.4mb 76f
5:10pm 14 15 mph 1013.4mb 76f
5:00pm 13 14 mph 1013.4mb 76f
4:50pm 13 15 mph 1013.4mb 76f
4:40pm 13 15 mph 1013.4mb 77f
4:30pm 13 14 mph 1013.5mb 75f
4:20pm 11 14 mph 1013.6mb 74f
4:10pm 11 13 mph 1013.7mb 74f
4:00pm 13 15 mph 1013.7mb 75f
3:50pm 11 13 mph 1013.6mb 75f
3:40pm 13 14 mph 1013.7mb 75f
3:30pm 11
mph
1013.8mb 75f
3:20pm 11 13 mph 1013.8mb 77f
3:10pm 11 14 mph 1013.8mb 76f
3:00pm 13 14 mph 1013.8mb 75f
2:50pm 11 13 mph 1013.9mb 74f
2:40pm 14 15 mph 1013.9mb 74f
2:30pm 14 15 mph 1014mb 74f
2:20pm 17 18 mph 1014.2mb 74f
2:10pm 17 20 mph 1014.2mb 74f
2:00pm 18 20 mph 1014mb 75f
1:50pm 15 17 mph 1014mb 75f
1:40pm 17 20 mph 1014.1mb 75f
1:30pm 16 18 mph 1014.2mb 75f
1:20pm 18 21 mph 1014.2mb 75f
1:10pm 18 21 mph 1014.3mb 75f
1:00pm 23 24 mph 1014.5mb 75f
12:50pm 20 22 mph 1014.5mb 75f
12:40pm 21 22 mph 1014.8mb 75f
12:30pm 22 24 mph 1015mb 75f
12:20pm 22 24 mph 1015mb 75f
12:10pm 21 23 mph 1014.6mb 75f
12:00pm 22 24 mph 1014.2mb 76f
11:50am 17 21 mph 1014.5mb 75f
11:40am 18 21 mph 1014.5mb 75f
11:30am 21 23 mph 1014.6mb 75f
11:20am 23 25 mph 1014.8mb 74f
11:10am 22 25 mph 1015mb 74f
11:00am 24 26 mph 1015mb 74f
10:50am 25 28 mph 1014.5mb 74f
10:40am 22 24 mph 1014.5mb 74f
10:30am 22 25 mph 1014.5mb 74f
10:20am 25 28 mph 1014.8mb 74f
10:10am 23 28 mph 1015mb 74f
10:00am 24 26 mph 1015mb 74f
9:50am 26 30 mph 1015.3mb 73f
9:40am 29 31 mph 1015.6mb 74f
9:30am 30 33 mph 1015.6mb 74f
9:20am 26 30 mph 1015.6mb 73f
9:10am 26 29 mph 1015.6mb 73f
9:00am 25 29 mph 1015.6mb 73f
8:50am 26 31 mph 1015.6mb 73f
8:40am 28 30 mph 1015.6mb 73f
8:30am 25 28 mph 1015.6mb 73f
8:20am 24 29 mph 1015.6mb 73f
8:10am 24 28 mph 1015.6mb 73f
8:00am 25 29 mph 1015.7mb 73f
7:50am 28 30 mph 1015.6mb 73f
7:40am 21 24 mph 1015.8mb 72f
7:30am 21 23 mph 1016mb 72f
7:20am 21 24 mph 1015.7mb 71f
7:10am 22 25 mph 1015.7mb 71f
7:00am 18 23 mph 1015.8mb 71f
6:50am 22 26 mph 1015.8mb 71f
6:40am 23 25 mph 1016mb 71f
6:30am 22 25 mph 1016.1mb 72f
6:20am 22 26 mph 1016.1mb 72f
6:10am 22 25 mph 1016.1mb 72f
6:00am 24 29 mph 1016.1mb 73f
5:50am 26 29 mph 1016.2mb 73f
5:40am 26 30 mph 1016.3mb 73f
5:30am 28 30 mph 1016.5mb 73f
5:20am 26 30 mph 1016.6mb 73f
5:10am 24 28 mph 1016.8mb 72f
5:00am 28 30 mph 1016.9mb 72f
4:50am 25 28 mph 1017.1mb 71f
4:40am 25 28 mph 1017.1mb 72f
4:30am 25 30 mph 1017.2mb 74f
4:20am 26 30 mph 1017.2mb 73f
4:10am 25 30 mph 1017.6mb 73f
4:00am 23 25 mph 1017.7mb 73f
3:50am 25 26 mph 1017.9mb 74f
3:40am 26 30 mph 1017.9mb 74f
3:30am 26 30 mph 1017.9mb 73f
3:20am 25 29 mph 1018mb 73f
3:10am 23 26 mph 1018mb 73f
3:00am 22 24 mph 1018.2mb 73f
2:50am 22 24 mph 1018.4mb 73f
2:40am 21 23 mph 1018.3mb 73f
2:30am 21 23 mph 1018.5mb 73f
2:20am 18 22 mph 1018.6mb 72f
2:10am 18 21 mph 1018.6mb 71f
2:00am 15 17 mph 1018.6mb 71f
1:50am 13 15 mph 1018.7mb 71f
1:40am 14 16 mph 1018.7mb 71f
1:30am 14 15 mph 1018.6mb 71f
1:20am 14 16 mph 1018.7mb 71f
1:10am 13 15 mph 1018.7mb 71f
1:00am 11 15 mph 1018.9mb 71f
12:50am 13 15 mph 1019mb 71f
12:40am 14 17 mph 1019mb 71f
12:30am 11 14 mph 1019mb 71f
12:20am 20 22 mph 1018.9mb 73f
12:10am 14 15 mph 1019mb 71f
12:00am 11 13 mph 1019.1mb 72f
Tue 08/23 11:50pm 14 18 mph 1019.3mb 71f
11:40pm 13 14 mph 1019.3mb 72f
11:30pm 14 16 mph 1019.3mb 72f
11:20pm 14 15 mph 1019.6mb 72f
11:10pm 13 16 mph 1019.6mb 72f
11:00pm 13 15 mph 1019.8mb 72f
10:50pm 13 15 mph 1019.7mb 73f
10:40pm 13 15 mph 1019.9mb 73f
10:30pm 11 13 mph 1020.1mb 73f
10:20pm 10 14 mph 1020.1mb 73f
10:10pm 10 14 mph 1020.1mb 73f
10:00pm 10 13 mph 1020.1mb 73f
9:50pm 10 13 mph 1020.2mb 73f
9:40pm 10 11 mph 1020.3mb 73f
9:30pm 15 16 mph 1020.5mb 74f
9:20pm 15 16 mph 1020.5mb 74f
9:10pm 11 15 mph 1020.5mb 74f
9:00pm 13 15 mph 1020.7mb 74f
8:50pm 13 15 mph 1020.8mb 74f
8:40pm 13 14 mph 1021mb 74f
8:30pm 11 13 mph 1021mb 74f
8:20pm 11 14 mph 1020.9mb 74f
8:10pm 11 13 mph 1020.8mb 74f
8:00pm 13 14 mph 1020.8mb 74f
7:50pm 14
mph
1020.8mb 74f
7:40pm 13 15 mph 1020.9mb 74f
7:30pm 14
mph
1021mb 74f
7:20pm 14 15 mph 1021mb 75f
7:10pm 13 15 mph 1021.2mb 75f
7:00pm 13 14 mph 1021.1mb 75f
6:50pm 11 13 mph 1021.1mb 76f
6:40pm 13 14 mph 1021.1mb 76f
6:30pm 13 14 mph 1021.1mb 76f
6:20pm 13 14 mph 1021.2mb 76f
6:10pm 15 16 mph 1021.3mb 76f
6:00pm 15 16 mph 1021.5mb 75f
5:50pm 16
mph
1021.5mb 75f
5:40pm 17 20 mph 1021.3mb 75f
5:30pm 15 17 mph 1021.3mb 75f
5:20pm 17 20 mph 1021.2mb 76f
5:10pm 17 20 mph 1021.4mb 76f
5:00pm 17 20 mph 1021.4mb 76f
4:50pm 17 21 mph 1021.4mb 76f
4:40pm 17 20 mph 1021.5mb 75f
4:30pm 18 21 mph 1021.5mb 76f
4:20pm 18 21 mph 1021.6mb 75f
4:10pm 20 21 mph 1021.6mb 75f
4:00pm 17 18 mph 1021.6mb 75f
3:50pm 18 21 mph 1021.6mb 75f
3:40pm 20 22 mph 1021.7mb 75f
3:30pm 21 23 mph 1021.8mb 75f
3:20pm 20 23 mph 1021.8mb 75f
3:10pm 20 21 mph 1021.8mb 75f
3:00pm 20 21 mph 1022mb 75f
2:50pm 20 22 mph 1022.2mb 75f
2:40pm 20 22 mph 1022.1mb 75f
2:30pm 20 21 mph 1022.1mb 76f
2:20pm 18 21 mph 1022.2mb 75f
2:10pm 18 21 mph 1022.5mb 75f
2:00pm 18 21 mph 1022.6mb 75f
1:50pm 18 21 mph 1022.8mb 75f
1:40pm 18 21 mph 1022.8mb 75f
1:30pm 18 20 mph 1023mb 74f
1:20pm 18 20 mph 1023.2mb 74f
1:10pm 17 18 mph 1023.2mb 74f
1:00pm 18 21 mph 1023.2mb 74f
12:50pm 20 22 mph 1023.2mb 74f
12:40pm 20 21 mph 1023.2mb 74f
12:30pm 20 22 mph 1023.5mb 74f
12:20pm 20 22 mph 1023.5mb 73f
12:10pm 20 21 mph 1023.5mb 73f
12:00pm 21 23 mph 1023.5mb 73f
11:50am 18 20 mph 1023.5mb 73f
11:40am 21 22 mph 1023.5mb 73f
11:30am 20 22 mph 1023.5mb 73f
11:20am 21 22 mph 1023.5mb 73f
11:10am 21 23 mph 1023.5mb 73f
11:00am 20 22 mph 1023.5mb 73f
10:50am 22 23 mph 1023.5mb 73f
10:40am 20 23 mph 1023.5mb 73f
10:30am 18 21 mph 1023.5mb 73f
10:20am 20 22 mph 1023.5mb 73f
10:10am 20 22 mph 1023.5mb 73f
10:00am 20 21 mph 1023.5mb 73f
9:50am 20 21 mph 1023.5mb 73f
9:40am 18 22 mph 1023.2mb 73f
9:30am 20 22 mph 1023.2mb 73f
9:20am 20 21 mph 1023.1mb 73f
9:10am 20 21 mph 1023mb 73f
9:00am 18 20 mph 1022.9mb 73f
8:50am 18 21 mph 1022.9mb 73f
8:40am 17 20 mph 1022.9mb 73f
8:30am 17 18 mph 1022.9mb 73f
8:20am 17 18 mph 1022.8mb 73f
8:10am 16 17 mph 1022.8mb 73f
8:00am 17 20 mph 1022.6mb 73f
7:50am 17 21 mph 1022.7mb 73f
7:40am 18 21 mph 1022.7mb 73f
7:30am 17 18 mph 1022.6mb 73f
7:20am 18 20 mph 1022.5mb 73f
7:10am 15 17 mph 1022.5mb 73f
7:00am 17 18 mph 1022.5mb 73f
6:50am 17 18 mph 1022.5mb 73f
6:40am 16 18 mph 1022.6mb 73f
6:30am 17 20 mph 1022.5mb 73f
6:20am 17 18 mph 1022.4mb 73f
6:10am 17 18 mph 1022.3mb 73f
6:00am 17 18 mph 1022.3mb 73f
5:50am 17 20 mph 1022.3mb 73f
5:40am 17 18 mph 1022.2mb 73f
5:30am 16 17 mph 1022.2mb 73f
5:20am 16 18 mph 1022.3mb 73f
5:10am 18 20 mph 1022.2mb 73f
5:00am 16 17 mph 1022.3mb 73f
4:50am 16 17 mph 1022.2mb 73f
4:40am 17 18 mph 1022.2mb 73f
4:30am 15 17 mph 1022.2mb 73f
4:20am 16 17 mph 1022.2mb 73f
4:10am 15 17 mph 1022.2mb 73f
4:00am 17 18 mph 1022.2mb 73f
3:50am 18 20 mph 1022.2mb 73f
3:40am 18 20 mph 1022.2mb 73f
3:30am 17 20 mph 1022.2mb 73f
3:20am 17 20 mph 1022.2mb 73f
3:10am 18 20 mph 1022.2mb 73f
3:00am 18 20 mph 1022mb 73f
2:50am 17 18 mph 1022mb 73f
2:40am 18 20 mph 1022mb 74f
2:30am 18 20 mph 1022mb 73f
2:20am 20 22 mph 1021.9mb 73f
2:10am 22
mph
1021.7mb 74f
2:00am 20 22 mph 1021.7mb 74f
1:50am 18 21 mph 1021.7mb 74f
1:40am 20 22 mph 1021.7mb 74f
1:30am 20 22 mph 1021.7mb 74f
1:20am 17 20 mph 1021.7mb 74f
1:10am 22 23 mph 1021.7mb 74f
1:00am 24 25 mph 1021.7mb 74f
12:50am 22 25 mph 1021.7mb 74f
12:40am 20 23 mph 1021.7mb 74f
12:30am 22 25 mph 1021.5mb 74f
12:20am 23 26 mph 1021.6mb 74f
12:10am 23 25 mph 1021.4mb 74f
12:00am 22 25 mph 1021.5mb 73f
Mon 08/22 11:50pm 23 25 mph 1021.7mb 74f
11:40pm 24 25 mph 1021.5mb 74f
11:30pm 21 22 mph 1021.5mb 74f
11:20pm 21 22 mph 1021.3mb 74f
11:10pm 23 24 mph 1021.3mb 74f
11:00pm 23 25 mph 1021.2mb 74f
10:50pm 23 24 mph 1021.1mb 74f
10:40pm 22 24 mph 1021.1mb 73f
10:30pm 22 23 mph 1021mb 73f
10:20pm 21 24 mph 1021.1mb 73f
10:10pm 20 22 mph 1021.1mb 73f
10:00pm 22 24 mph 1021mb 73f
9:50pm 21 23 mph 1020.9mb 73f
9:40pm 21 23 mph 1020.9mb 73f
9:30pm 22 23 mph 1020.9mb 73f
9:20pm 21 22 mph 1020.9mb 73f
9:10pm 20 22 mph 1021mb 73f
9:00pm 21 22 mph 1020.9mb 73f
8:50pm 18 20 mph 1020.8mb 73f
8:40pm 18 20 mph 1020.8mb 73f
8:30pm 18 20 mph 1020.7mb 72f
8:20pm 16 17 mph 1020.7mb 72f
8:10pm 16 17 mph 1020.7mb 72f
8:00pm 16 17 mph 1020.8mb 72f
7:50pm 15 16 mph 1020.9mb 72f
7:40pm 15
mph
1020.7mb 72f
7:30pm 15 17 mph 1020.9mb 72f
7:20pm 14 15 mph 1021mb 72f
7:10pm 14 16 mph 1021mb 73f
7:00pm 15 17 mph 1021mb 73f
6:50pm 15 16 mph 1021.2mb 73f
6:40pm 15 16 mph 1021mb 73f
6:30pm 14 15 mph 1021mb 73f
6:20pm 13 14 mph 1021.2mb 73f
6:10pm 13 15 mph 1021.2mb 73f
6:00pm 11 14 mph 1021.2mb 74f
5:50pm 10 11 mph 1021.2mb 73f
5:40pm 11 14 mph 1021.2mb 73f
5:30pm 13 15 mph 1021.2mb 73f
5:20pm 11 14 mph 1021.2mb 73f
5:10pm 10 13 mph 1021.4mb 72f
5:00pm 14 15 mph 1021.6mb 73f
4:50pm 14 15 mph 1021.6mb 72f
4:40pm 14 16 mph 1021.5mb 72f
4:30pm 11 14 mph 1021.5mb 73f
4:20pm 14 16 mph 1021.6mb 72f
4:10pm 13 14 mph 1021.6mb 72f
4:00pm 13 15 mph 1021.6mb 72f
3:50pm 10 13 mph 1021.6mb 72f
3:40pm 13 15 mph 1021.6mb 72f
3:30pm 11 13 mph 1021.8mb 72f
3:20pm 10 11 mph 1021.8mb 72f
3:10pm 11 14 mph 1021.8mb 72f
3:00pm 11 13 mph 1021.8mb 72f
2:50pm 10 13 mph 1021.9mb 72f
2:40pm 10 13 mph 1021.9mb 72f
2:30pm 11 14 mph 1022.1mb 72f
2:20pm 11 14 mph 1022.3mb 72f
2:10pm 11 13 mph 1022.3mb 72f
2:00pm 11 13 mph 1022.3mb 71f
1:50pm 10
mph
1022.3mb 71f
1:40pm 11 13 mph 1022.3mb 72f
1:30pm 11 13 mph 1022.3mb 71f
1:20pm 13 15 mph 1022.3mb 72f
1:10pm 10 14 mph 1022.3mb 72f
1:00pm 10 13 mph 1022.2mb 71f
12:50pm 13 14 mph 1022.2mb 71f
12:40pm 10 11 mph 1022.2mb 71f
12:30pm 9 11 mph 1022.2mb 71f
12:20pm 10 13 mph 1022.2mb 71f
12:10pm 9
mph
1022.3mb 71f
12:00pm 11 14 mph 1022.5mb 71f
11:50am 10 14 mph 1022.5mb 71f
11:40am 13 14 mph 1022.5mb 71f
11:30am 9 10 mph 1022.3mb 71f
11:20am 10 14 mph 1022.2mb 71f
11:10am 10 11 mph 1022.2mb 71f
11:00am 11 13 mph 1022.2mb 71f
10:50am 10 11 mph 1022.2mb 70f
10:40am 10 13 mph 1022.2mb 70f
10:30am 10 11 mph 1022.2mb 70f
10:20am 10 11 mph 1022.2mb 71f
10:10am 10 13 mph 1022mb 70f
10:00am 10 11 mph 1021.9mb 70f